sensor_id;sensor_type;location;lat;lon;timestamp;P1;durP1;ratioP1;P2;durP2;ratioP2
45065;SDS011;30830;53.704;10.004;2022-11-20T00:02:16;4.70;;;3.15;;
45065;SDS011;30830;53.704;10.004;2022-11-20T00:04:42;4.63;;;3.65;;
45065;SDS011;30830;53.704;10.004;2022-11-20T00:07:08;4.47;;;3.55;;
45065;SDS011;30830;53.704;10.004;2022-11-20T00:09:33;4.53;;;3.60;;
45065;SDS011;30830;53.704;10.004;2022-11-20T00:11:59;4.10;;;3.67;;
45065;SDS011;30830;53.704;10.004;2022-11-20T00:14:24;4.25;;;3.60;;
45065;SDS011;30830;53.704;10.004;2022-11-20T00:16:50;6.90;;;4.90;;
45065;SDS011;30830;53.704;10.004;2022-11-20T00:19:16;6.75;;;3.88;;
45065;SDS011;30830;53.704;10.004;2022-11-20T00:21:41;5.57;;;3.58;;
45065;SDS011;30830;53.704;10.004;2022-11-20T00:24:08;6.03;;;3.92;;
45065;SDS011;30830;53.704;10.004;2022-11-20T00:26:34;6.18;;;3.70;;
45065;SDS011;30830;53.704;10.004;2022-11-20T00:29:00;6.28;;;3.45;;
45065;SDS011;30830;53.704;10.004;2022-11-20T00:31:27;5.25;;;3.30;;
45065;SDS011;30830;53.704;10.004;2022-11-20T00:33:54;6.40;;;3.72;;
45065;SDS011;30830;53.704;10.004;2022-11-20T00:36:20;4.78;;;3.60;;
45065;SDS011;30830;53.704;10.004;2022-11-20T00:38:50;5.75;;;3.78;;
45065;SDS011;30830;53.704;10.004;2022-11-20T00:41:17;4.28;;;3.88;;
45065;SDS011;30830;53.704;10.004;2022-11-20T00:43:43;6.95;;;4.15;;
45065;SDS011;30830;53.704;10.004;2022-11-20T00:46:09;4.38;;;3.55;;
45065;SDS011;30830;53.704;10.004;2022-11-20T00:48:35;4.53;;;3.63;;
45065;SDS011;30830;53.704;10.004;2022-11-20T00:51:01;4.75;;;3.90;;
45065;SDS011;30830;53.704;10.004;2022-11-20T00:53:27;5.50;;;4.05;;
45065;SDS011;30830;53.704;10.004;2022-11-20T00:55:56;4.80;;;4.03;;
45065;SDS011;30830;53.704;10.004;2022-11-20T00:58:30;6.45;;;4.18;;
45065;SDS011;30830;53.704;10.004;2022-11-20T01:01:03;6.55;;;4.55;;
45065;SDS011;30830;53.704;10.004;2022-11-20T01:03:34;5.82;;;3.80;;
45065;SDS011;30830;53.704;10.004;2022-11-20T01:06:09;4.30;;;3.83;;
45065;SDS011;30830;53.704;10.004;2022-11-20T01:08:36;5.00;;;3.25;;
45065;SDS011;30830;53.704;10.004;2022-11-20T01:11:03;5.68;;;4.47;;
45065;SDS011;30830;53.704;10.004;2022-11-20T01:13:32;3.83;;;3.33;;
45065;SDS011;30830;53.704;10.004;2022-11-20T01:16:05;7.22;;;3.75;;
45065;SDS011;30830;53.704;10.004;2022-11-20T01:18:33;6.35;;;3.58;;
45065;SDS011;30830;53.704;10.004;2022-11-20T01:21:00;6.95;;;4.03;;
45065;SDS011;30830;53.704;10.004;2022-11-20T01:23:31;4.80;;;3.72;;
45065;SDS011;30830;53.704;10.004;2022-11-20T01:26:01;4.65;;;3.70;;
45065;SDS011;30830;53.704;10.004;2022-11-20T01:28:28;4.57;;;3.17;;
45065;SDS011;30830;53.704;10.004;2022-11-20T01:30:54;5.13;;;3.42;;
45065;SDS011;30830;53.704;10.004;2022-11-20T01:33:19;8.52;;;3.67;;
45065;SDS011;30830;53.704;10.004;2022-11-20T01:35:45;4.88;;;3.50;;
45065;SDS011;30830;53.704;10.004;2022-11-20T01:38:10;4.82;;;3.17;;
45065;SDS011;30830;53.704;10.004;2022-11-20T01:40:36;4.72;;;3.65;;
45065;SDS011;30830;53.704;10.004;2022-11-20T01:43:10;4.38;;;3.28;;
45065;SDS011;30830;53.704;10.004;2022-11-20T01:48:21;5.18;;;3.20;;
45065;SDS011;30830;53.704;10.004;2022-11-20T01:50:50;4.43;;;2.92;;
45065;SDS011;30830;53.704;10.004;2022-11-20T01:53:17;5.65;;;3.35;;
45065;SDS011;30830;53.704;10.004;2022-11-20T01:55:50;3.75;;;3.13;;
45065;SDS011;30830;53.704;10.004;2022-11-20T01:58:19;5.00;;;3.60;;
45065;SDS011;30830;53.704;10.004;2022-11-20T02:00:47;3.90;;;3.17;;
45065;SDS011;30830;53.704;10.004;2022-11-20T02:03:15;6.28;;;3.50;;
45065;SDS011;30830;53.704;10.004;2022-11-20T02:05:46;6.03;;;3.15;;
45065;SDS011;30830;53.704;10.004;2022-11-20T02:08:19;6.28;;;3.67;;
45065;SDS011;30830;53.704;10.004;2022-11-20T02:10:46;4.88;;;3.35;;
45065;SDS011;30830;53.704;10.004;2022-11-20T02:13:11;6.72;;;3.63;;
45065;SDS011;30830;53.704;10.004;2022-11-20T02:15:55;4.72;;;3.55;;
45065;SDS011;30830;53.704;10.004;2022-11-20T02:18:21;3.92;;;3.20;;
45065;SDS011;30830;53.704;10.004;2022-11-20T02:20:48;4.05;;;3.65;;
45065;SDS011;30830;53.704;10.004;2022-11-20T02:25:55;5.10;;;3.38;;
45065;SDS011;30830;53.704;10.004;2022-11-20T02:28:22;4.97;;;3.65;;
45065;SDS011;30830;53.704;10.004;2022-11-20T02:30:48;4.75;;;3.40;;
45065;SDS011;30830;53.704;10.004;2022-11-20T02:33:14;5.35;;;3.80;;
45065;SDS011;30830;53.704;10.004;2022-11-20T02:35:41;3.60;;;3.05;;
45065;SDS011;30830;53.704;10.004;2022-11-20T02:38:08;4.03;;;3.47;;
45065;SDS011;30830;53.704;10.004;2022-11-20T02:40:34;4.95;;;3.15;;
45065;SDS011;30830;53.704;10.004;2022-11-20T02:43:00;4.78;;;3.63;;
45065;SDS011;30830;53.704;10.004;2022-11-20T02:45:25;4.38;;;3.03;;
45065;SDS011;30830;53.704;10.004;2022-11-20T02:47:51;4.82;;;3.13;;
45065;SDS011;30830;53.704;10.004;2022-11-20T02:50:17;5.88;;;3.65;;
45065;SDS011;30830;53.704;10.004;2022-11-20T02:52:43;5.05;;;3.33;;
45065;SDS011;30830;53.704;10.004;2022-11-20T02:55:09;4.30;;;3.55;;
45065;SDS011;30830;53.704;10.004;2022-11-20T02:57:36;3.58;;;3.08;;
45065;SDS011;30830;53.704;10.004;2022-11-20T03:00:02;5.80;;;3.20;;
45065;SDS011;30830;53.704;10.004;2022-11-20T03:02:29;6.32;;;3.33;;
45065;SDS011;30830;53.704;10.004;2022-11-20T03:04:55;3.72;;;3.33;;
45065;SDS011;30830;53.704;10.004;2022-11-20T03:07:21;3.83;;;2.90;;
45065;SDS011;30830;53.704;10.004;2022-11-20T03:09:47;4.43;;;2.95;;
45065;SDS011;30830;53.704;10.004;2022-11-20T03:12:13;5.75;;;2.58;;
45065;SDS011;30830;53.704;10.004;2022-11-20T03:14:38;4.53;;;3.50;;
45065;SDS011;30830;53.704;10.004;2022-11-20T03:17:04;6.13;;;3.20;;
45065;SDS011;30830;53.704;10.004;2022-11-20T03:19:30;5.30;;;3.40;;
45065;SDS011;30830;53.704;10.004;2022-11-20T03:21:55;5.20;;;3.78;;
45065;SDS011;30830;53.704;10.004;2022-11-20T03:24:21;6.00;;;3.95;;
45065;SDS011;30830;53.704;10.004;2022-11-20T03:26:47;4.38;;;3.63;;
45065;SDS011;30830;53.704;10.004;2022-11-20T03:29:12;4.05;;;2.92;;
45065;SDS011;30830;53.704;10.004;2022-11-20T03:31:39;4.10;;;3.45;;
45065;SDS011;30830;53.704;10.004;2022-11-20T03:34:05;3.58;;;3.00;;
45065;SDS011;30830;53.704;10.004;2022-11-20T03:36:32;5.13;;;3.58;;
45065;SDS011;30830;53.704;10.004;2022-11-20T03:38:58;5.50;;;3.42;;
45065;SDS011;30830;53.704;10.004;2022-11-20T03:41:28;5.10;;;3.13;;
45065;SDS011;30830;53.704;10.004;2022-11-20T03:43:59;4.32;;;3.58;;
45065;SDS011;30830;53.704;10.004;2022-11-20T03:46:26;3.60;;;3.08;;
45065;SDS011;30830;53.704;10.004;2022-11-20T03:48:53;4.32;;;3.05;;
45065;SDS011;30830;53.704;10.004;2022-11-20T03:51:20;6.38;;;3.30;;
45065;SDS011;30830;53.704;10.004;2022-11-20T03:53:50;4.78;;;3.33;;
45065;SDS011;30830;53.704;10.004;2022-11-20T03:56:18;4.13;;;3.30;;
45065;SDS011;30830;53.704;10.004;2022-11-20T03:58:47;4.47;;;2.83;;
45065;SDS011;30830;53.704;10.004;2022-11-20T04:01:17;4.13;;;3.05;;
45065;SDS011;30830;53.704;10.004;2022-11-20T04:03:45;3.25;;;2.90;;
45065;SDS011;30830;53.704;10.004;2022-11-20T04:08:39;4.95;;;3.55;;
45065;SDS011;30830;53.704;10.004;2022-11-20T04:13:41;5.97;;;2.90;;
45065;SDS011;30830;53.704;10.004;2022-11-20T04:16:08;4.13;;;2.97;;
45065;SDS011;30830;53.704;10.004;2022-11-20T04:18:34;4.05;;;2.97;;
45065;SDS011;30830;53.704;10.004;2022-11-20T04:21:01;2.80;;;2.58;;
45065;SDS011;30830;53.704;10.004;2022-11-20T04:23:27;4.22;;;3.10;;
45065;SDS011;30830;53.704;10.004;2022-11-20T04:25:53;4.90;;;3.47;;
45065;SDS011;30830;53.704;10.004;2022-11-20T04:28:18;4.32;;;3.55;;
45065;SDS011;30830;53.704;10.004;2022-11-20T04:30:44;4.75;;;3.10;;
45065;SDS011;30830;53.704;10.004;2022-11-20T04:33:10;4.35;;;3.22;;
45065;SDS011;30830;53.704;10.004;2022-11-20T04:35:36;5.68;;;3.65;;
45065;SDS011;30830;53.704;10.004;2022-11-20T04:38:02;3.85;;;3.13;;
45065;SDS011;30830;53.704;10.004;2022-11-20T04:40:28;4.75;;;3.35;;
45065;SDS011;30830;53.704;10.004;2022-11-20T04:42:54;3.90;;;3.45;;
45065;SDS011;30830;53.704;10.004;2022-11-20T04:45:20;4.55;;;3.42;;
45065;SDS011;30830;53.704;10.004;2022-11-20T04:47:47;4.50;;;3.20;;
45065;SDS011;30830;53.704;10.004;2022-11-20T04:50:13;2.72;;;2.53;;
45065;SDS011;30830;53.704;10.004;2022-11-20T04:52:39;3.72;;;3.10;;
45065;SDS011;30830;53.704;10.004;2022-11-20T04:55:04;4.40;;;3.00;;
45065;SDS011;30830;53.704;10.004;2022-11-20T04:57:30;4.55;;;3.00;;
45065;SDS011;30830;53.704;10.004;2022-11-20T04:59:56;4.30;;;3.15;;
45065;SDS011;30830;53.704;10.004;2022-11-20T05:02:21;4.30;;;3.20;;
45065;SDS011;30830;53.704;10.004;2022-11-20T05:04:47;6.03;;;3.40;;
45065;SDS011;30830;53.704;10.004;2022-11-20T05:07:12;3.20;;;2.88;;
45065;SDS011;30830;53.704;10.004;2022-11-20T05:09:38;3.00;;;2.70;;
45065;SDS011;30830;53.704;10.004;2022-11-20T05:12:04;6.40;;;3.42;;
45065;SDS011;30830;53.704;10.004;2022-11-20T05:14:29;3.65;;;3.22;;
45065;SDS011;30830;53.704;10.004;2022-11-20T05:16:55;3.45;;;3.00;;
45065;SDS011;30830;53.704;10.004;2022-11-20T05:19:20;3.25;;;3.00;;
45065;SDS011;30830;53.704;10.004;2022-11-20T05:21:46;4.10;;;3.30;;
45065;SDS011;30830;53.704;10.004;2022-11-20T05:24:11;3.63;;;3.05;;
45065;SDS011;30830;53.704;10.004;2022-11-20T05:26:37;4.60;;;3.15;;
45065;SDS011;30830;53.704;10.004;2022-11-20T05:29:03;4.50;;;3.38;;
45065;SDS011;30830;53.704;10.004;2022-11-20T05:31:28;3.85;;;3.03;;
45065;SDS011;30830;53.704;10.004;2022-11-20T05:33:55;3.00;;;2.72;;
45065;SDS011;30830;53.704;10.004;2022-11-20T05:36:21;4.43;;;2.97;;
45065;SDS011;30830;53.704;10.004;2022-11-20T05:38:46;4.15;;;3.20;;
45065;SDS011;30830;53.704;10.004;2022-11-20T05:41:16;3.58;;;3.25;;
45065;SDS011;30830;53.704;10.004;2022-11-20T05:43:44;3.58;;;3.17;;
45065;SDS011;30830;53.704;10.004;2022-11-20T05:46:11;6.60;;;2.85;;
45065;SDS011;30830;53.704;10.004;2022-11-20T05:48:39;5.78;;;3.97;;
45065;SDS011;30830;53.704;10.004;2022-11-20T05:51:06;4.25;;;2.95;;
45065;SDS011;30830;53.704;10.004;2022-11-20T05:53:34;3.95;;;3.60;;
45065;SDS011;30830;53.704;10.004;2022-11-20T05:56:01;4.40;;;3.63;;
45065;SDS011;30830;53.704;10.004;2022-11-20T05:58:27;4.57;;;3.55;;
45065;SDS011;30830;53.704;10.004;2022-11-20T06:00:52;4.07;;;2.83;;
45065;SDS011;30830;53.704;10.004;2022-11-20T06:03:18;5.40;;;3.28;;
45065;SDS011;30830;53.704;10.004;2022-11-20T06:05:44;3.97;;;2.97;;
45065;SDS011;30830;53.704;10.004;2022-11-20T06:08:10;6.72;;;3.53;;
45065;SDS011;30830;53.704;10.004;2022-11-20T06:10:35;4.05;;;2.95;;
45065;SDS011;30830;53.704;10.004;2022-11-20T06:13:01;2.85;;;2.65;;
45065;SDS011;30830;53.704;10.004;2022-11-20T06:15:26;4.07;;;2.80;;
45065;SDS011;30830;53.704;10.004;2022-11-20T06:17:54;4.35;;;3.42;;
45065;SDS011;30830;53.704;10.004;2022-11-20T06:20:20;4.60;;;2.78;;
45065;SDS011;30830;53.704;10.004;2022-11-20T06:22:47;4.50;;;2.88;;
45065;SDS011;30830;53.704;10.004;2022-11-20T06:25:12;4.07;;;2.80;;
45065;SDS011;30830;53.704;10.004;2022-11-20T06:27:38;3.58;;;2.80;;
45065;SDS011;30830;53.704;10.004;2022-11-20T06:30:04;3.78;;;3.05;;
45065;SDS011;30830;53.704;10.004;2022-11-20T06:32:30;4.15;;;3.28;;
45065;SDS011;30830;53.704;10.004;2022-11-20T06:34:56;4.28;;;3.45;;
45065;SDS011;30830;53.704;10.004;2022-11-20T06:37:21;7.05;;;4.03;;
45065;SDS011;30830;53.704;10.004;2022-11-20T06:39:47;4.15;;;2.85;;
45065;SDS011;30830;53.704;10.004;2022-11-20T06:42:12;5.07;;;3.55;;
45065;SDS011;30830;53.704;10.004;2022-11-20T06:44:38;9.20;;;3.45;;
45065;SDS011;30830;53.704;10.004;2022-11-20T06:47:03;3.83;;;3.17;;
45065;SDS011;30830;53.704;10.004;2022-11-20T06:49:29;5.65;;;4.68;;
45065;SDS011;30830;53.704;10.004;2022-11-20T06:51:54;4.30;;;3.60;;
45065;SDS011;30830;53.704;10.004;2022-11-20T06:54:20;5.03;;;3.35;;
45065;SDS011;30830;53.704;10.004;2022-11-20T06:56:48;4.35;;;3.70;;
45065;SDS011;30830;53.704;10.004;2022-11-20T06:59:14;5.43;;;3.22;;
45065;SDS011;30830;53.704;10.004;2022-11-20T07:01:39;4.45;;;3.65;;
45065;SDS011;30830;53.704;10.004;2022-11-20T07:04:05;4.93;;;4.13;;
45065;SDS011;30830;53.704;10.004;2022-11-20T07:06:31;6.70;;;3.63;;
45065;SDS011;30830;53.704;10.004;2022-11-20T07:08:56;4.40;;;4.00;;
45065;SDS011;30830;53.704;10.004;2022-11-20T07:11:22;4.97;;;3.83;;
45065;SDS011;30830;53.704;10.004;2022-11-20T07:13:48;4.63;;;3.75;;
45065;SDS011;30830;53.704;10.004;2022-11-20T07:16:14;4.03;;;3.63;;
45065;SDS011;30830;53.704;10.004;2022-11-20T07:18:40;5.25;;;3.75;;
45065;SDS011;30830;53.704;10.004;2022-11-20T07:21:06;6.07;;;4.60;;
45065;SDS011;30830;53.704;10.004;2022-11-20T07:23:34;4.60;;;4.07;;
45065;SDS011;30830;53.704;10.004;2022-11-20T07:26:04;6.97;;;3.63;;
45065;SDS011;30830;53.704;10.004;2022-11-20T07:28:30;8.15;;;4.00;;
45065;SDS011;30830;53.704;10.004;2022-11-20T07:30:55;4.63;;;3.58;;
45065;SDS011;30830;53.704;10.004;2022-11-20T07:33:21;4.70;;;4.03;;
45065;SDS011;30830;53.704;10.004;2022-11-20T07:35:46;5.00;;;3.75;;
45065;SDS011;30830;53.704;10.004;2022-11-20T07:38:12;4.55;;;4.05;;
45065;SDS011;30830;53.704;10.004;2022-11-20T07:40:38;4.85;;;3.75;;
45065;SDS011;30830;53.704;10.004;2022-11-20T07:43:03;4.10;;;3.65;;
45065;SDS011;30830;53.704;10.004;2022-11-20T07:45:29;4.13;;;3.72;;
45065;SDS011;30830;53.704;10.004;2022-11-20T07:47:54;6.25;;;4.00;;
45065;SDS011;30830;53.704;10.004;2022-11-20T07:50:20;5.43;;;4.07;;
45065;SDS011;30830;53.704;10.004;2022-11-20T07:52:45;6.07;;;4.00;;
45065;SDS011;30830;53.704;10.004;2022-11-20T07:55:11;4.07;;;3.42;;
45065;SDS011;30830;53.704;10.004;2022-11-20T07:57:37;4.10;;;3.60;;
45065;SDS011;30830;53.704;10.004;2022-11-20T08:00:03;5.85;;;4.30;;
45065;SDS011;30830;53.704;10.004;2022-11-20T08:02:30;6.22;;;3.92;;
45065;SDS011;30830;53.704;10.004;2022-11-20T08:04:55;5.57;;;3.88;;
45065;SDS011;30830;53.704;10.004;2022-11-20T08:07:21;4.15;;;3.58;;
45065;SDS011;30830;53.704;10.004;2022-11-20T08:09:46;4.25;;;3.22;;
45065;SDS011;30830;53.704;10.004;2022-11-20T08:12:17;4.40;;;3.70;;
45065;SDS011;30830;53.704;10.004;2022-11-20T08:15:03;4.35;;;3.70;;
45065;SDS011;30830;53.704;10.004;2022-11-20T08:17:29;7.07;;;4.50;;
45065;SDS011;30830;53.704;10.004;2022-11-20T08:19:55;4.90;;;3.63;;
45065;SDS011;30830;53.704;10.004;2022-11-20T08:22:20;5.05;;;3.22;;
45065;SDS011;30830;53.704;10.004;2022-11-20T08:24:46;4.75;;;3.85;;
45065;SDS011;30830;53.704;10.004;2022-11-20T08:27:11;4.28;;;3.75;;
45065;SDS011;30830;53.704;10.004;2022-11-20T08:29:37;4.68;;;3.90;;
45065;SDS011;30830;53.704;10.004;2022-11-20T08:32:02;4.30;;;3.90;;
45065;SDS011;30830;53.704;10.004;2022-11-20T08:34:28;5.32;;;4.30;;
45065;SDS011;30830;53.704;10.004;2022-11-20T08:36:54;6.10;;;3.80;;
45065;SDS011;30830;53.704;10.004;2022-11-20T08:39:19;6.82;;;4.22;;
45065;SDS011;30830;53.704;10.004;2022-11-20T08:41:45;6.03;;;4.40;;
45065;SDS011;30830;53.704;10.004;2022-11-20T08:44:10;4.40;;;3.38;;
45065;SDS011;30830;53.704;10.004;2022-11-20T08:46:37;5.30;;;3.85;;
45065;SDS011;30830;53.704;10.004;2022-11-20T08:49:06;6.05;;;4.20;;
45065;SDS011;30830;53.704;10.004;2022-11-20T08:51:33;4.28;;;3.72;;
45065;SDS011;30830;53.704;10.004;2022-11-20T08:53:59;4.10;;;3.67;;
45065;SDS011;30830;53.704;10.004;2022-11-20T08:56:25;5.95;;;3.72;;
45065;SDS011;30830;53.704;10.004;2022-11-20T08:58:51;7.20;;;4.03;;
45065;SDS011;30830;53.704;10.004;2022-11-20T09:01:17;4.55;;;3.97;;
45065;SDS011;30830;53.704;10.004;2022-11-20T09:03:43;6.80;;;4.35;;
45065;SDS011;30830;53.704;10.004;2022-11-20T09:06:08;5.35;;;4.55;;
45065;SDS011;30830;53.704;10.004;2022-11-20T09:08:34;5.03;;;4.35;;
45065;SDS011;30830;53.704;10.004;2022-11-20T09:11:01;5.88;;;4.20;;
45065;SDS011;30830;53.704;10.004;2022-11-20T09:13:28;4.63;;;3.95;;
45065;SDS011;30830;53.704;10.004;2022-11-20T09:15:58;4.35;;;3.67;;
45065;SDS011;30830;53.704;10.004;2022-11-20T09:18:29;4.50;;;3.20;;
45065;SDS011;30830;53.704;10.004;2022-11-20T09:20:59;4.97;;;3.90;;
45065;SDS011;30830;53.704;10.004;2022-11-20T09:23:26;5.32;;;4.25;;
45065;SDS011;30830;53.704;10.004;2022-11-20T09:25:52;7.20;;;4.28;;
45065;SDS011;30830;53.704;10.004;2022-11-20T09:28:20;4.72;;;4.13;;
45065;SDS011;30830;53.704;10.004;2022-11-20T09:30:46;7.50;;;4.95;;
45065;SDS011;30830;53.704;10.004;2022-11-20T09:33:12;4.55;;;3.97;;
45065;SDS011;30830;53.704;10.004;2022-11-20T09:35:37;4.38;;;3.85;;
45065;SDS011;30830;53.704;10.004;2022-11-20T09:38:06;4.55;;;4.05;;
45065;SDS011;30830;53.704;10.004;2022-11-20T09:40:32;4.38;;;3.88;;
45065;SDS011;30830;53.704;10.004;2022-11-20T09:48:20;4.10;;;3.40;;
45065;SDS011;30830;53.704;10.004;2022-11-20T09:53:37;5.18;;;3.42;;
45065;SDS011;30830;53.704;10.004;2022-11-20T09:56:31;4.45;;;3.90;;
45065;SDS011;30830;53.704;10.004;2022-11-20T09:59:03;5.97;;;4.22;;
45065;SDS011;30830;53.704;10.004;2022-11-20T10:01:32;5.63;;;3.95;;
45065;SDS011;30830;53.704;10.004;2022-11-20T10:04:10;4.97;;;3.67;;
45065;SDS011;30830;53.704;10.004;2022-11-20T10:25:15;3.70;;;3.30;;
45065;SDS011;30830;53.704;10.004;2022-11-20T10:28:27;4.55;;;3.55;;
45065;SDS011;30830;53.704;10.004;2022-11-20T10:31:00;4.07;;;3.38;;
45065;SDS011;30830;53.704;10.004;2022-11-20T10:33:30;4.15;;;3.60;;
45065;SDS011;30830;53.704;10.004;2022-11-20T10:38:35;4.80;;;3.60;;
45065;SDS011;30830;53.704;10.004;2022-11-20T10:41:04;4.25;;;3.10;;
45065;SDS011;30830;53.704;10.004;2022-11-20T10:43:52;4.95;;;3.80;;
45065;SDS011;30830;53.704;10.004;2022-11-20T10:46:44;4.38;;;3.97;;
45065;SDS011;30830;53.704;10.004;2022-11-20T10:49:14;5.55;;;3.80;;
45065;SDS011;30830;53.704;10.004;2022-11-20T10:54:46;4.25;;;3.60;;
45065;SDS011;30830;53.704;10.004;2022-11-20T11:00:18;4.18;;;3.10;;
45065;SDS011;30830;53.704;10.004;2022-11-20T11:02:48;4.88;;;3.75;;
45065;SDS011;30830;53.704;10.004;2022-11-20T11:05:22;4.07;;;3.17;;
45065;SDS011;30830;53.704;10.004;2022-11-20T11:07:56;4.60;;;3.50;;
45065;SDS011;30830;53.704;10.004;2022-11-20T11:10:39;4.68;;;3.55;;
45065;SDS011;30830;53.704;10.004;2022-11-20T11:13:21;4.03;;;3.53;;
45065;SDS011;30830;53.704;10.004;2022-11-20T11:15:48;4.13;;;3.40;;
45065;SDS011;30830;53.704;10.004;2022-11-20T11:18:27;4.50;;;3.50;;
45065;SDS011;30830;53.704;10.004;2022-11-20T11:21:00;8.38;;;4.38;;
45065;SDS011;30830;53.704;10.004;2022-11-20T11:23:29;4.22;;;3.75;;
45065;SDS011;30830;53.704;10.004;2022-11-20T11:26:01;3.55;;;3.00;;
45065;SDS011;30830;53.704;10.004;2022-11-20T11:28:29;3.78;;;3.17;;
45065;SDS011;30830;53.704;10.004;2022-11-20T11:30:54;4.50;;;3.45;;
45065;SDS011;30830;53.704;10.004;2022-11-20T11:33:27;3.72;;;3.28;;
45065;SDS011;30830;53.704;10.004;2022-11-20T11:35:55;3.40;;;3.10;;
45065;SDS011;30830;53.704;10.004;2022-11-20T11:38:36;3.88;;;3.10;;
45065;SDS011;30830;53.704;10.004;2022-11-20T11:41:09;4.10;;;3.03;;
45065;SDS011;30830;53.704;10.004;2022-11-20T11:46:44;3.10;;;2.50;;
45065;SDS011;30830;53.704;10.004;2022-11-20T11:49:18;3.47;;;2.97;;
45065;SDS011;30830;53.704;10.004;2022-11-20T12:05:01;3.35;;;2.85;;
45065;SDS011;30830;53.704;10.004;2022-11-20T12:07:39;3.42;;;3.00;;
45065;SDS011;30830;53.704;10.004;2022-11-20T12:13:24;3.15;;;2.80;;
45065;SDS011;30830;53.704;10.004;2022-11-20T12:15:51;3.28;;;2.97;;
45065;SDS011;30830;53.704;10.004;2022-11-20T12:18:18;4.63;;;2.42;;
45065;SDS011;30830;53.704;10.004;2022-11-20T12:20:48;3.40;;;3.10;;
45065;SDS011;30830;53.704;10.004;2022-11-20T12:35:32;2.72;;;2.42;;
45065;SDS011;30830;53.704;10.004;2022-11-20T12:53:11;2.58;;;2.38;;
45065;SDS011;30830;53.704;10.004;2022-11-20T12:55:59;2.83;;;2.53;;
45065;SDS011;30830;53.704;10.004;2022-11-20T13:01:51;2.30;;;2.10;;
45065;SDS011;30830;53.704;10.004;2022-11-20T13:07:02;4.90;;;2.53;;
45065;SDS011;30830;53.704;10.004;2022-11-20T13:09:31;2.40;;;2.20;;
45065;SDS011;30830;53.704;10.004;2022-11-20T13:12:05;2.40;;;2.20;;
45065;SDS011;30830;53.704;10.004;2022-11-20T13:14:42;3.10;;;2.63;;
45065;SDS011;30830;53.704;10.004;2022-11-20T13:17:13;2.05;;;1.88;;
45065;SDS011;30830;53.704;10.004;2022-11-20T13:19:52;2.70;;;2.00;;
45065;SDS011;30830;53.704;10.004;2022-11-20T13:25:08;1.92;;;1.80;;
45065;SDS011;30830;53.704;10.004;2022-11-20T13:27:35;2.00;;;1.80;;
45065;SDS011;30830;53.704;10.004;2022-11-20T13:30:02;2.10;;;1.95;;
45065;SDS011;30830;53.704;10.004;2022-11-20T13:32:56;2.00;;;1.83;;
45065;SDS011;30830;53.704;10.004;2022-11-20T13:38:21;3.08;;;2.67;;
45065;SDS011;30830;53.704;10.004;2022-11-20T13:43:34;3.67;;;3.17;;
45065;SDS011;30830;53.704;10.004;2022-11-20T13:46:03;2.78;;;2.58;;
45065;SDS011;30830;53.704;10.004;2022-11-20T13:48:31;3.75;;;2.97;;
45065;SDS011;30830;53.704;10.004;2022-11-20T13:51:26;2.67;;;2.25;;
45065;SDS011;30830;53.704;10.004;2022-11-20T13:54:06;2.92;;;2.03;;
45065;SDS011;30830;53.704;10.004;2022-11-20T13:56:40;2.38;;;2.17;;
45065;SDS011;30830;53.704;10.004;2022-11-20T13:59:52;2.97;;;2.58;;
45065;SDS011;30830;53.704;10.004;2022-11-20T14:02:23;2.50;;;2.30;;
45065;SDS011;30830;53.704;10.004;2022-11-20T14:04:52;3.05;;;2.75;;
45065;SDS011;30830;53.704;10.004;2022-11-20T14:07:20;2.20;;;2.10;;
45065;SDS011;30830;53.704;10.004;2022-11-20T14:09:57;3.55;;;2.30;;
45065;SDS011;30830;53.704;10.004;2022-11-20T14:12:28;3.00;;;2.70;;
45065;SDS011;30830;53.704;10.004;2022-11-20T14:14:55;3.38;;;3.05;;
45065;SDS011;30830;53.704;10.004;2022-11-20T14:17:29;2.83;;;2.63;;
45065;SDS011;30830;53.704;10.004;2022-11-20T14:20:07;3.22;;;2.78;;
45065;SDS011;30830;53.704;10.004;2022-11-20T14:22:47;3.40;;;2.90;;
45065;SDS011;30830;53.704;10.004;2022-11-20T14:27:41;4.57;;;4.18;;
45065;SDS011;30830;53.704;10.004;2022-11-20T14:30:14;4.35;;;3.47;;
45065;SDS011;30830;53.704;10.004;2022-11-20T14:32:46;4.88;;;3.55;;
45065;SDS011;30830;53.704;10.004;2022-11-20T14:35:26;3.55;;;2.83;;
45065;SDS011;30830;53.704;10.004;2022-11-20T14:37:54;4.43;;;3.20;;
45065;SDS011;30830;53.704;10.004;2022-11-20T14:40:34;3.63;;;2.83;;
45065;SDS011;30830;53.704;10.004;2022-11-20T14:43:00;3.92;;;2.95;;
45065;SDS011;30830;53.704;10.004;2022-11-20T14:45:40;4.05;;;3.47;;
45065;SDS011;30830;53.704;10.004;2022-11-20T14:48:08;5.65;;;3.90;;
45065;SDS011;30830;53.704;10.004;2022-11-20T14:50:35;4.10;;;3.22;;
45065;SDS011;30830;53.704;10.004;2022-11-20T14:53:03;4.80;;;3.42;;
45065;SDS011;30830;53.704;10.004;2022-11-20T14:55:33;5.65;;;3.40;;
45065;SDS011;30830;53.704;10.004;2022-11-20T14:58:03;4.40;;;3.92;;
45065;SDS011;30830;53.704;10.004;2022-11-20T15:00:52;3.63;;;3.20;;
45065;SDS011;30830;53.704;10.004;2022-11-20T15:03:22;4.80;;;4.40;;
45065;SDS011;30830;53.704;10.004;2022-11-20T15:05:55;5.18;;;4.03;;
45065;SDS011;30830;53.704;10.004;2022-11-20T15:08:20;8.85;;;7.95;;
45065;SDS011;30830;53.704;10.004;2022-11-20T15:10:47;8.60;;;6.45;;
45065;SDS011;30830;53.704;10.004;2022-11-20T15:13:36;8.57;;;7.10;;
45065;SDS011;30830;53.704;10.004;2022-11-20T15:16:03;9.00;;;5.72;;
45065;SDS011;30830;53.704;10.004;2022-11-20T15:18:37;5.60;;;4.97;;
45065;SDS011;30830;53.704;10.004;2022-11-20T15:21:10;5.28;;;4.65;;
45065;SDS011;30830;53.704;10.004;2022-11-20T15:23:37;9.98;;;7.13;;
45065;SDS011;30830;53.704;10.004;2022-11-20T15:26:06;12.85;;;7.78;;
45065;SDS011;30830;53.704;10.004;2022-11-20T15:31:04;5.80;;;4.80;;
45065;SDS011;30830;53.704;10.004;2022-11-20T15:33:30;7.03;;;5.28;;
45065;SDS011;30830;53.704;10.004;2022-11-20T15:35:56;6.65;;;4.57;;
45065;SDS011;30830;53.704;10.004;2022-11-20T15:38:22;6.78;;;5.35;;
45065;SDS011;30830;53.704;10.004;2022-11-20T15:40:47;7.50;;;5.32;;
45065;SDS011;30830;53.704;10.004;2022-11-20T15:43:13;7.70;;;5.63;;
45065;SDS011;30830;53.704;10.004;2022-11-20T15:45:46;6.63;;;5.88;;
45065;SDS011;30830;53.704;10.004;2022-11-20T15:50:52;11.68;;;8.13;;
45065;SDS011;30830;53.704;10.004;2022-11-20T15:53:26;14.48;;;9.18;;
45065;SDS011;30830;53.704;10.004;2022-11-20T15:55:52;12.75;;;9.07;;
45065;SDS011;30830;53.704;10.004;2022-11-20T15:58:17;10.85;;;8.57;;
45065;SDS011;30830;53.704;10.004;2022-11-20T16:00:43;11.20;;;8.55;;
45065;SDS011;30830;53.704;10.004;2022-11-20T16:03:12;10.10;;;7.90;;
45065;SDS011;30830;53.704;10.004;2022-11-20T16:05:39;9.32;;;7.43;;
45065;SDS011;30830;53.704;10.004;2022-11-20T16:08:04;13.65;;;8.77;;
45065;SDS011;30830;53.704;10.004;2022-11-20T16:10:30;14.65;;;10.00;;
45065;SDS011;30830;53.704;10.004;2022-11-20T16:12:56;16.00;;;11.70;;
45065;SDS011;30830;53.704;10.004;2022-11-20T16:15:40;13.57;;;8.82;;
45065;SDS011;30830;53.704;10.004;2022-11-20T16:18:14;10.45;;;6.93;;
45065;SDS011;30830;53.704;10.004;2022-11-20T16:20:41;10.10;;;6.80;;
45065;SDS011;30830;53.704;10.004;2022-11-20T16:23:08;12.68;;;9.38;;
45065;SDS011;30830;53.704;10.004;2022-11-20T16:25:34;11.43;;;8.75;;
45065;SDS011;30830;53.704;10.004;2022-11-20T16:27:59;10.05;;;7.43;;
45065;SDS011;30830;53.704;10.004;2022-11-20T16:30:25;7.55;;;5.93;;
45065;SDS011;30830;53.704;10.004;2022-11-20T16:32:51;7.15;;;5.88;;
45065;SDS011;30830;53.704;10.004;2022-11-20T16:35:16;8.43;;;6.25;;
45065;SDS011;30830;53.704;10.004;2022-11-20T16:37:42;6.60;;;5.50;;